Al Udeid, Qatar

1:28 PM AST on March 05, 2015 (GMT +0300)
Al Waab | Change Station
CLOSE
Current Station
Personal Weather Station
Location: Doha, DOHA
Elevation: 69 ft
Nearby Weather Stations

Elev 69 ft 25.26 °N, 51.46 °E | Updated 12 minutes ago

Clear
Clear
81.5 °F
Feels Like 79 °F
N
6.9
Wind Variable Wind from East
Gusts 10.7 mph

Today
High -- | Low -- °F
--% Chance of Precip.
Yesterday
High -- | Low -- °F
Precip. -- in
5:54 AM 5:38 PM
Full, 100% visible
Pressure 29.98 in
Visibility -9999.0 miles
Clouds
Heat Index 79 °F
Dew Point 29 °F
Humidity 15%
Rainfall in
Snow Depth Not available.
UV Not available.
Pollen Not available.
Air Quality Not available.
Flu Activity Not available.
METAR OTBD 051000Z 36015KT CAVOK 25/10 Q1015 NOSIG

More Conditions Fewer Conditions

Pressure 29.98 in
Visibility -9999.0 miles
Clouds
Heat Index 79 °F
Dew Point 29 °F
Humidity 15%
Rainfall in
Snow Depth Not available.
UV Not available.
Pollen Not available.
Air Quality Not available.
Flu Activity Not available.
METAR OTBD 051000Z 36015KT CAVOK 25/10 Q1015 NOSIG

More Conditions Fewer Conditions

10-Day Weather Forecast

Almanac

Astronomy

Mar. 05, 2015 Rise Set
Actual Time
Civil Twilight
Nautical Twilight
Astronomical Twilight
Moon
Length of Visible Light
Length of Day
Tomorrow will be .
, % of the Moon is Illuminated

Today's Extremes

Country Highs Country Lows

Community

WunderPhotos

Upload Photos

1,802,714 photos uploaded!

WunderBlogs® & News

Nearby

Air Quality

  Air Quality AQ Index Pollutant
Not available.

Snow Depth

Station Depth Elevation

Earthquake Activity

City Distance Mag. Time & Date
Minimum magnitude displayed is 2.5.

Coastal Water Temperatures

Place Temperature

Nearby Weather Stations